Time;durP1;ratioP1;P1;durP2;ratioP2;P2;SDS_P1;SDS_P2;PMS_P1;PMS_P2;Temp;Humidity;BMP_temperature;BMP_pressure;BME280_temperature;BME280_humidity;BME280_pressure;Samples;Min_cycle;Max_cycle;Signal;HPM_P1;HPM_P2
2022/08/06 00:00:15;;;;;;;3.22;3.03;;;;;;;11.34;100.00;102559.09;5243222;28;20024;-78
2022/08/06 00:02:45;;;;;;;2.72;2.63;;;;;;;11.33;100.00;102570.16;5260830;28;20032;-79
2022/08/06 00:05:15;;;;;;;8.65;4.47;;;;;;;11.17;100.00;102549.88;5262127;28;20046;-79
2022/08/06 00:07:46;;;;;;;4.55;4.35;;;;;;;11.31;100.00;102572.25;5245840;28;20052;-78
2022/08/06 00:10:18;;;;;;;3.33;3.08;;;;;;;11.28;100.00;102570.78;5258657;28;20028;-79
2022/08/06 00:12:49;;;;;;;3.80;3.60;;;;;;;11.12;100.00;102545.13;5260265;28;20031;-78
2022/08/06 00:15:19;;;;;;;5.35;3.88;;;;;;;11.01;100.00;102535.00;5258735;28;20084;-80
2022/08/06 00:17:50;;;;;;;4.63;3.80;;;;;;;11.21;100.00;102572.75;5241763;28;20024;-79
2022/08/06 00:20:20;;;;;;;4.53;4.13;;;;;;;11.19;100.00;102566.72;5239055;28;20108;-80
2022/08/06 00:22:51;;;;;;;4.20;3.90;;;;;;;11.16;100.00;102583.38;5252048;28;20024;-79
2022/08/06 00:25:22;;;;;;;4.35;3.95;;;;;;;10.98;100.00;102553.53;5233086;28;20115;-79
2022/08/06 00:27:52;;;;;;;4.80;4.32;;;;;;;11.04;100.00;102591.34;5234630;28;20027;-79
2022/08/06 00:30:22;;;;;;;5.03;4.30;;;;;;;10.99;100.00;102571.41;5251685;28;20040;-80
2022/08/06 00:32:56;;;;;;;4.82;3.90;;;;;;;10.88;100.00;102554.03;5254095;28;20031;-80
2022/08/06 00:35:26;;;;;;;4.15;3.92;;;;;;;11.06;100.00;102583.00;5261375;28;20019;-79
2022/08/06 00:37:56;;;;;;;6.43;4.50;;;;;;;10.91;100.00;102568.97;5263591;28;20024;-80
2022/08/06 00:40:29;;;;;;;5.00;3.33;;;;;;;10.93;100.00;102593.91;5259309;28;20051;-80
2022/08/06 00:43:02;;;;;;;5.38;3.97;;;;;;;10.88;100.00;102607.25;5241733;28;20282;-79
2022/08/06 00:45:34;;;;;;;3.78;3.58;;;;;;;10.69;100.00;102580.06;5260005;28;20026;-77
2022/08/06 00:48:04;;;;;;;3.28;3.10;;;;;;;10.65;100.00;102589.69;5262303;28;20032;-79
2022/08/06 00:50:35;;;;;;;8.57;3.78;;;;;;;10.65;100.00;102608.59;5252130;28;20024;-77
2022/08/06 00:53:05;;;;;;;4.30;3.90;;;;;;;10.57;100.00;102600.72;5265899;28;20033;-79
2022/08/06 00:55:36;;;;;;;6.55;4.32;;;;;;;10.44;100.00;102587.25;5266020;28;20054;-79
2022/08/06 00:58:07;;;;;;;9.45;4.35;;;;;;;10.49;100.00;102614.44;5246529;28;20028;-78
2022/08/06 01:00:37;;;;;;;6.50;4.78;;;;;;;10.43;100.00;102605.31;5258499;28;20116;-77
2022/08/06 01:03:10;;;;;;;4.25;3.95;;;;;;;10.35;100.00;102604.75;5258869;28;20021;-79
2022/08/06 01:05:40;;;;;;;5.95;4.93;;;;;;;10.34;100.00;102608.50;5241035;28;20110;-79
2022/08/06 01:08:11;;;;;;;6.22;3.97;;;;;;;10.36;100.00;102614.50;5242376;28;20033;-79
2022/08/06 01:10:42;;;;;;;4.90;4.60;;;;;;;10.27;100.00;102599.56;5241026;28;20020;-78
2022/08/06 01:13:13;;;;;;;4.50;4.20;;;;;;;10.29;100.00;102627.19;5241439;28;20052;-78
2022/08/06 01:16:21;;;;;;;5.28;4.78;;;;;;;10.11;100.00;102600.78;5260892;28;20099;-78
2022/08/06 01:19:22;;;;;;;3.70;3.42;;;;;;;10.00;100.00;102578.00;5224758;28;20044;-78
2022/08/06 01:22:18;;;;;;;3.58;3.35;;;;;;;10.15;100.00;102613.66;5252732;28;20038;-78
2022/08/06 01:25:19;;;;;;;4.28;3.90;;;;;;;10.15;100.00;102624.47;5268478;28;20021;-77
2022/08/06 01:27:57;;;;;;;8.90;4.45;;;;;;;10.11;100.00;102620.53;5251062;28;20032;-78
2022/08/06 01:30:33;;;;;;;7.68;4.15;;;;;;;10.10;100.00;102618.91;5264414;28;20613;-79
2022/08/06 01:33:09;;;;;;;6.75;4.13;;;;;;;10.11;100.00;102628.63;5259088;28;20028;-79
2022/08/06 01:35:44;;;;;;;4.05;3.72;;;;;;;10.04;100.00;102608.09;5258295;28;20039;-79
2022/08/06 01:38:25;;;;;;;7.57;4.00;;;;;;;10.15;100.00;102635.25;5241622;28;20020;-78
2022/08/06 01:41:00;;;;;;;4.30;4.00;;;;;;;10.08;100.00;102620.13;5259775;28;20024;-78
2022/08/06 01:43:34;;;;;;;5.38;5.03;;;;;;;10.21;100.00;102644.44;5257646;28;20031;-78
2022/08/06 01:46:06;;;;;;;4.80;4.50;;;;;;;10.20;100.00;102625.75;5257822;28;20505;-79
2022/08/06 01:48:39;;;;;;;5.65;4.93;;;;;;;10.24;100.00;102629.69;5259036;28;20032;-78
2022/08/06 01:51:09;;;;;;;12.60;5.18;;;;;;;9.86;100.00;102579.03;5257191;28;20490;-77
2022/08/06 01:53:41;;;;;;;8.25;4.30;;;;;;;10.18;100.00;102643.97;5238285;28;20021;-77
2022/08/06 01:56:12;;;;;;;6.78;3.90;;;;;;;9.95;100.00;102603.94;5238857;28;20024;-78
2022/08/06 01:58:45;;;;;;;4.90;4.60;;;;;;;9.95;100.00;102612.88;5257781;28;20024;-78
2022/08/06 02:01:18;;;;;;;5.40;4.88;;;;;;;10.10;100.00;102634.25;5257938;28;20090;-80
2022/08/06 02:03:55;;;;;;;4.35;3.10;;;;;;;10.05;100.00;102623.25;5238241;28;20120;-78
2022/08/06 02:06:33;;;;;;;4.78;3.97;;;;;;;9.98;100.00;102625.94;5256893;28;20028;-78
2022/08/06 02:09:09;;;;;;;5.00;4.38;;;;;;;10.02;100.00;102620.97;5255649;28;20120;-80
2022/08/06 02:11:42;;;;;;;6.78;4.53;;;;;;;9.92;100.00;102617.84;5255989;28;20017;-78
2022/08/06 02:14:14;;;;;;;3.92;3.60;;;;;;;9.96;100.00;102636.13;5254790;28;20101;-77
2022/08/06 02:16:45;;;;;;;4.22;3.95;;;;;;;9.85;100.00;102617.84;5240451;28;20021;-79
2022/08/06 02:19:18;;;;;;;8.20;4.18;;;;;;;9.77;100.00;102620.78;5239564;28;20035;-78
2022/08/06 02:21:51;;;;;;;5.38;4.70;;;;;;;9.74;100.00;102622.03;5239435;28;20485;-78
2022/08/06 02:24:24;;;;;;;7.63;3.92;;;;;;;9.73;100.00;102631.16;5256184;28;20389;-78
2022/08/06 02:26:56;;;;;;;3.75;3.55;;;;;;;9.61;100.00;102610.38;5254898;28;20056;-79
2022/08/06 02:29:28;;;;;;;3.67;3.47;;;;;;;9.52;100.00;102608.94;5258000;28;20054;-78
2022/08/06 02:31:58;;;;;;;5.55;4.70;;;;;;;9.66;100.00;102626.78;5251257;28;20031;-78
2022/08/06 02:34:29;;;;;;;3.67;3.42;;;;;;;9.56;100.00;102620.94;5251788;28;20024;-77
2022/08/06 02:37:31;;;;;;;6.07;3.67;;;;;;;9.57;100.00;102625.31;5270414;28;20021;-77
2022/08/06 02:40:09;;;;;;;3.65;3.45;;;;;;;9.49;100.00;102612.88;5230969;28;20040;-79
2022/08/06 02:42:48;;;;;;;6.40;4.15;;;;;;;9.47;100.00;102618.47;5251121;28;20119;-77
2022/08/06 02:45:46;;;;;;;5.28;4.85;;;;;;;9.53;100.00;102632.19;5276490;22;20131;-63
2022/08/06 02:48:31;;;;;;;3.28;3.17;;;;;;;9.52;100.00;102627.81;5243866;28;20063;-65
2022/08/06 02:51:08;;;;;;;4.75;4.50;;;;;;;9.46;100.00;102621.38;5244911;28;20055;-64
2022/08/06 02:53:46;;;;;;;8.18;4.40;;;;;;;9.47;100.00;102626.56;5243787;28;20020;-64
2022/08/06 02:56:17;;;;;;;3.15;3.05;;;;;;;9.38;100.00;102622.41;5245153;28;20085;-65
2022/08/06 02:58:52;;;;;;;5.20;4.72;;;;;;;9.46;100.00;102646.47;5248521;28;20485;-65
2022/08/06 03:01:29;;;;;;;6.50;4.20;;;;;;;9.47;100.00;102647.31;5248105;28;20017;-66
2022/08/06 03:04:01;;;;;;;5.65;5.20;;;;;;;9.42;100.00;102639.81;5247719;28;20039;-64
2022/08/06 03:06:34;;;;;;;4.30;4.10;;;;;;;9.51;100.00;102645.03;5247755;28;20025;-64
2022/08/06 03:09:07;;;;;;;4.10;3.63;;;;;;;9.51;100.00;102653.13;5248334;28;20095;-64
2022/08/06 03:11:40;;;;;;;4.10;3.80;;;;;;;9.46;100.00;102646.47;5247758;28;20507;-66
2022/08/06 03:14:14;;;;;;;15.32;5.07;;;;;;;9.46;100.00;102651.88;5247132;28;20066;-66
2022/08/06 03:16:46;;;;;;;6.40;4.60;;;;;;;9.46;100.00;102661.81;5247999;28;20029;-63
2022/08/06 03:19:19;;;;;;;3.90;3.70;;;;;;;9.45;100.00;102658.31;5230230;28;20036;-62
2022/08/06 03:21:51;;;;;;;5.88;4.93;;;;;;;9.45;100.00;102661.00;5247754;28;20052;-65
2022/08/06 03:24:23;;;;;;;5.80;4.32;;;;;;;9.48;100.00;102663.28;5247433;28;20032;-64
2022/08/06 03:26:57;;;;;;;5.88;5.43;;;;;;;9.46;100.00;102659.97;5247828;28;20051;-64
2022/08/06 03:29:28;;;;;;;7.38;4.70;;;;;;;9.46;100.00;102661.81;5247523;28;20036;-65
2022/08/06 03:32:00;;;;;;;4.80;4.43;;;;;;;9.46;100.00;102661.81;5247900;28;20063;-64
2022/08/06 03:34:33;;;;;;;5.97;4.45;;;;;;;9.45;100.00;102662.84;5247138;28;20688;-64
2022/08/06 03:37:07;;;;;;;5.22;4.93;;;;;;;9.46;100.00;102662.66;5247152;28;20024;-64
2022/08/06 03:39:41;;;;;;;9.00;5.90;;;;;;;9.47;100.00;102669.72;5246933;28;20043;-63
2022/08/06 03:42:11;;;;;;;4.80;4.40;;;;;;;9.50;100.00;102673.03;5247282;28;20392;-65
2022/08/06 03:44:42;;;;;;;6.55;5.47;;;;;;;9.51;100.00;102675.53;5246931;28;20040;-63
2022/08/06 03:47:28;;;;;;;6.10;5.38;;;;;;;9.51;100.00;102675.53;5247183;28;20031;-64
2022/08/06 03:50:11;;;;;;;6.90;5.53;;;;;;;9.47;100.00;102675.09;5246961;28;20066;-63
2022/08/06 03:53:20;;;;;;;6.60;6.00;;;;;;;9.48;100.00;102678.63;5247244;28;20411;-65
2022/08/06 03:55:54;;;;;;;4.93;4.63;;;;;;;9.45;100.00;102671.78;5203079;28;20072;-64
2022/08/06 03:58:26;;;;;;;5.28;5.00;;;;;;;9.43;100.00;102675.72;5241452;28;20135;-63
2022/08/06 04:01:02;;;;;;;5.30;4.95;;;;;;;9.39;100.00;102677.16;5247191;28;20070;-66
2022/08/06 04:03:34;;;;;;;5.15;4.80;;;;;;;9.34;100.00;102669.66;5246321;28;20120;-65
2022/08/06 04:06:09;;;;;;;6.45;5.95;;;;;;;9.49;100.00;102696.47;5247079;28;20024;-65
2022/08/06 04:08:41;;;;;;;8.20;6.65;;;;;;;9.41;100.00;102675.09;5246260;28;20048;-64
2022/08/06 04:11:12;;;;;;;24.42;6.45;;;;;;;9.52;100.00;102687.16;5228788;28;20484;-62
2022/08/06 04:13:44;;;;;;;22.35;7.60;;;;;;;9.45;100.00;102682.56;5246282;28;20074;-64
2022/08/06 04:16:15;;;;;;;9.55;6.88;;;;;;;9.46;100.00;102686.94;5246971;28;20024;-65
2022/08/06 04:18:47;;;;;;;9.38;8.02;;;;;;;9.31;100.00;102670.06;5246731;28;20120;-64
2022/08/06 04:21:23;;;;;;;12.40;6.00;;;;;;;9.45;100.00;102697.91;5246526;28;20021;-63
2022/08/06 04:23:54;;;;;;;24.50;7.30;;;;;;;9.45;100.00;102687.97;5245916;28;20400;-62
2022/08/06 04:26:27;;;;;;;5.05;4.72;;;;;;;9.51;100.00;102698.97;5246594;28;20024;-64
2022/08/06 04:28:59;;;;;;;9.45;6.03;;;;;;;9.54;100.00;102695.84;5246959;28;20040;-65
2022/08/06 04:31:31;;;;;;;7.57;5.88;;;;;;;9.56;100.00;102700.00;5246403;28;20500;-65
2022/08/06 04:34:02;;;;;;;7.00;6.30;;;;;;;9.60;100.00;102700.44;5245802;28;20040;-65
2022/08/06 04:36:33;;;;;;;14.75;7.40;;;;;;;9.57;100.00;102695.44;5246474;28;20028;-63
2022/08/06 04:39:04;;;;;;;8.13;5.57;;;;;;;9.65;100.00;102703.34;5246583;28;20097;-65
2022/08/06 04:41:35;;;;;;;5.50;5.10;;;;;;;9.66;100.00;102699.63;5228509;28;20020;-62
2022/08/06 04:44:06;;;;;;;6.25;5.82;;;;;;;9.70;100.00;102707.09;5245447;28;20050;-65
2022/08/06 04:46:37;;;;;;;6.65;6.07;;;;;;;9.81;100.00;102708.38;5245265;28;20020;-65
2022/08/06 04:49:08;;;;;;;6.43;6.03;;;;;;;9.88;100.00;102711.88;5245376;28;20107;-63
2022/08/06 04:51:38;;;;;;;10.85;7.03;;;;;;;9.86;100.00;102697.75;5245211;28;20025;-65
2022/08/06 04:54:09;;;;;;;18.77;7.20;;;;;;;9.98;100.00;102715.00;5244564;28;20108;-65
2022/08/06 04:56:40;;;;;;;8.07;7.15;;;;;;;10.06;100.00;102705.88;5245018;28;20028;-64
2022/08/06 04:59:11;;;;;;;9.00;8.07;;;;;;;10.11;100.00;102709.59;5245106;28;20039;-65
2022/08/06 05:01:41;;;;;;;5.82;5.43;;;;;;;10.18;100.00;102720.41;5226842;28;20107;-65
2022/08/06 05:04:12;;;;;;;7.47;6.80;;;;;;;10.26;100.00;102716.72;5226330;28;20035;-65
2022/08/06 05:07:01;;;;;;;6.85;6.45;;;;;;;10.36;100.00;102717.97;5245127;28;20032;-65
2022/08/06 05:09:31;;;;;;;6.40;5.90;;;;;;;10.48;100.00;102723.53;5244675;28;20028;-64
2022/08/06 05:12:13;;;;;;;6.97;6.38;;;;;;;10.54;100.00;102725.41;5245017;28;20473;-65
2022/08/06 05:15:13;;;;;;;7.53;6.80;;;;;;;10.63;100.00;102723.31;5244108;28;20094;-64
2022/08/06 05:17:50;;;;;;;6.70;6.28;;;;;;;10.73;100.00;102729.09;5226756;28;20123;-65
2022/08/06 05:20:21;;;;;;;8.07;7.30;;;;;;;10.67;100.00;102700.25;5244672;28;20107;-64
2022/08/06 05:22:55;;;;;;;10.25;6.68;;;;;;;10.93;100.00;102731.78;5239702;28;20089;-64
2022/08/06 05:25:25;;;;;;;6.57;6.18;;;;;;;11.01;100.00;102731.50;5242513;28;20016;-63
2022/08/06 05:27:56;;;;;;;8.52;6.38;;;;;;;11.12;100.00;102737.09;5243981;28;20032;-65
2022/08/06 05:30:26;;;;;;;7.47;6.95;;;;;;;11.21;100.00;102731.47;5244451;28;20020;-66
2022/08/06 05:32:58;;;;;;;7.10;6.05;;;;;;;11.32;100.00;102739.72;5244012;28;20031;-66
2022/08/06 05:35:28;;;;;;;7.50;6.78;;;;;;;11.44;100.00;102739.88;5243643;28;20024;-64
2022/08/06 05:37:59;;;;;;;7.38;6.07;;;;;;;11.59;100.00;102747.69;5244210;28;20024;-65
2022/08/06 05:40:33;;;;;;;6.93;6.28;;;;;;;11.68;100.00;102743.69;5243771;28;20024;-64
2022/08/06 05:43:04;;;;;;;8.25;7.43;;;;;;;11.78;100.00;102744.09;5244086;28;20028;-66
2022/08/06 05:45:35;;;;;;;6.28;5.38;;;;;;;11.88;100.00;102749.84;5203593;28;1158226;-65
2022/08/06 05:48:07;;;;;;;13.57;6.70;;;;;;;11.94;100.00;102746.25;5245327;28;20020;-66
2022/08/06 05:50:43;;;;;;;5.22;4.90;;;;;;;12.06;100.00;102755.34;5245003;28;20067;-65
2022/08/06 05:53:30;;;;;;;6.15;5.75;;;;;;;12.17;100.00;102751.09;5226640;28;20036;-65
2022/08/06 05:56:09;;;;;;;12.57;6.88;;;;;;;12.27;100.00;102754.13;5247732;28;20028;-65
2022/08/06 05:59:02;;;;;;;6.03;5.50;;;;;;;12.39;100.00;102757.81;5227432;28;20028;-65
2022/08/06 06:01:35;;;;;;;6.00;5.53;;;;;;;12.46;100.00;102752.28;5260986;28;20460;-66
2022/08/06 06:04:06;;;;;;;7.07;6.55;;;;;;;12.55;100.00;102755.56;5263166;28;20028;-66
2022/08/06 06:06:37;;;;;;;6.55;6.05;;;;;;;12.55;100.00;102739.31;5264086;28;20096;-67
2022/08/06 06:09:07;;;;;;;7.95;5.10;;;;;;;12.72;100.00;102746.63;5264677;28;20020;-65
2022/08/06 06:11:38;;;;;;;5.43;5.03;;;;;;;12.81;100.00;102748.00;5264547;28;20028;-64
2022/08/06 06:14:24;;;;;;;11.35;5.45;;;;;;;12.75;100.00;102724.47;5264343;28;20503;-65
2022/08/06 06:17:03;;;;;;;6.05;4.60;;;;;;;12.82;100.00;102732.56;5247758;28;20028;-64
2022/08/06 06:19:55;;;;;;;6.28;4.78;;;;;;;12.98;100.00;102742.00;5265545;28;20065;-64
2022/08/06 06:22:39;;;;;;;5.90;4.63;;;;;;;12.99;100.00;102735.50;5246739;28;20027;-63
2022/08/06 06:25:18;;;;;;;5.97;5.57;;;;;;;13.20;100.00;102747.81;5264987;28;20062;-65
2022/08/06 06:28:09;;;;;;;5.28;4.97;;;;;;;13.28;100.00;102756.44;5265416;28;20129;-63
2022/08/06 06:30:44;;;;;;;6.38;5.97;;;;;;;13.37;100.00;102751.53;5265263;28;20047;-66
2022/08/06 06:33:21;;;;;;;5.95;5.50;;;;;;;13.54;100.00;102746.34;5269212;28;20502;-65
2022/08/06 06:36:02;;;;;;;5.93;5.43;;;;;;;13.62;100.00;102745.97;5269238;28;20031;-65
2022/08/06 06:39:01;;;;;;;4.03;3.80;;;;;;;13.79;100.00;102757.88;5269485;28;20049;-66
2022/08/06 06:41:37;;;;;;;9.75;4.22;;;;;;;13.92;100.00;102759.53;5269435;28;20116;-65
2022/08/06 06:44:08;;;;;;;4.97;3.75;;;;;;;14.05;100.00;102768.34;5268413;28;20038;-64
2022/08/06 06:47:05;;;;;;;9.23;4.50;;;;;;;14.19;100.00;102775.19;5269213;28;20020;-67
2022/08/06 06:50:12;;;;;;;5.60;4.05;;;;;;;14.41;100.00;102766.53;5260077;28;20032;-67
2022/08/06 06:52:45;;;;;;;5.03;3.45;;;;;;;14.70;100.00;102760.16;5269413;28;20492;-65
2022/08/06 06:55:33;;;;;;;3.42;3.22;;;;;;;14.95;100.00;102772.66;5268761;28;20055;-65
2022/08/06 06:58:36;;;;;;;3.17;2.97;;;;;;;15.12;100.00;102763.53;5269569;28;20662;-64
2022/08/06 07:01:10;;;;;;;3.90;3.67;;;;;;;15.40;100.00;102770.06;5237970;28;20044;-63
2022/08/06 07:03:43;;;;;;;7.07;3.85;;;;;;;15.64;100.00;102766.22;5268544;28;20500;-63
2022/08/06 07:06:15;;;;;;;5.05;4.35;;;;;;;15.85;100.00;102781.06;5268892;28;20032;-64
2022/08/06 07:08:48;;;;;;;4.28;3.90;;;;;;;16.09;100.00;102777.13;5251423;28;20027;-64
2022/08/06 07:11:24;;;;;;;8.50;4.40;;;;;;;16.36;100.00;102777.31;5269733;28;20019;-64
2022/08/06 07:13:58;;;;;;;3.08;2.88;;;;;;;16.64;100.00;102770.13;5268416;28;20020;-63
2022/08/06 07:16:31;;;;;;;4.10;3.10;;;;;;;16.87;100.00;102775.38;5268826;28;20404;-63
2022/08/06 07:19:07;;;;;;;4.47;3.28;;;;;;;17.04;100.00;102778.88;5268947;28;20389;-63
2022/08/06 07:21:43;;;;;;;11.82;3.97;;;;;;;17.31;100.00;102781.72;5268718;28;20674;-64
2022/08/06 07:24:15;;;;;;;3.30;2.55;;;;;;;17.63;100.00;102781.78;5268067;28;20031;-64
2022/08/06 07:26:48;;;;;;;4.82;3.40;;;;;;;17.83;100.00;102781.22;5268352;28;20028;-64
2022/08/06 07:29:19;;;;;;;5.40;3.05;;;;;;;17.90;100.00;102787.31;5268382;28;20047;-64
2022/08/06 07:31:50;;;;;;;3.22;2.90;;;;;;;18.06;100.00;102772.69;5250140;28;20016;-65
2022/08/06 07:34:22;;;;;;;5.80;3.03;;;;;;;18.38;100.00;102785.53;5267801;28;20043;-64
2022/08/06 07:36:55;;;;;;;3.78;3.08;;;;;;;18.49;100.00;102779.88;5268582;28;20072;-64
2022/08/06 07:39:37;;;;;;;1.98;1.90;;;;;;;18.48;100.00;102789.16;5268461;28;20081;-64
2022/08/06 07:42:10;;;;;;;2.88;2.67;;;;;;;18.61;100.00;102774.25;5250895;28;20053;-64
2022/08/06 07:44:49;;;;;;;3.42;2.92;;;;;;;18.82;100.00;102794.34;5266508;28;20024;-63
2022/08/06 07:47:22;;;;;;;2.22;2.13;;;;;;;18.96;100.00;102789.25;5268217;28;20085;-63
2022/08/06 07:49:56;;;;;;;2.47;2.38;;;;;;;19.11;100.00;102790.13;5267742;28;20088;-64
2022/08/06 07:52:27;;;;;;;2.50;2.40;;;;;;;19.25;100.00;102787.75;5268239;28;20479;-65
2022/08/06 07:54:59;;;;;;;2.55;2.45;;;;;;;19.34;100.00;102779.84;5267517;28;20024;-64
2022/08/06 07:57:31;;;;;;;6.03;1.77;;;;;;;19.23;100.00;102792.66;5268233;28;20162;-62
2022/08/06 08:00:03;;;;;;;10.23;2.78;;;;;;;19.19;100.00;102797.03;5267771;28;20024;-62
2022/08/06 08:02:34;;;;;;;2.40;2.33;;;;;;;19.35;100.00;102801.47;5267888;28;20020;-63
2022/08/06 08:07:55;;;;;;;15.48;3.22;;;;;;;19.70;100.00;102797.22;5267813;28;20157;-63
2022/08/06 08:10:26;;;;;;;2.97;1.83;;;;;;;19.72;100.00;102793.13;5267577;28;20110;-63
2022/08/06 08:12:57;;;;;;;1.70;1.67;;;;;;;19.85;100.00;102797.28;5267438;28;20024;-62
2022/08/06 08:15:31;;;;;;;2.35;2.25;;;;;;;19.64;100.00;102799.13;5248649;28;20027;-67
2022/08/06 08:18:03;;;;;;;2.58;1.90;;;;;;;19.48;100.00;102794.66;5267337;28;20043;-64
2022/08/06 08:20:37;;;;;;;1.95;1.85;;;;;;;19.63;100.00;102797.50;5267294;28;20035;-65
2022/08/06 08:23:11;;;;;;;2.05;1.95;;;;;;;19.49;100.00;102786.19;5267239;28;20024;-65
2022/08/06 08:25:42;;;;;;;4.35;2.38;;;;;;;19.41;100.00;102794.09;5266792;28;20073;-66
2022/08/06 08:28:12;;;;;;;2.13;2.03;;;;;;;19.40;100.00;102792.44;5267380;28;20395;-65
2022/08/06 08:30:45;;;;;;;2.20;2.10;;;;;;;19.34;100.00;102797.09;5267727;28;20028;-67
2022/08/06 08:33:19;;;;;;;5.85;2.33;;;;;;;19.32;100.00;102791.06;5255272;28;20028;-62
2022/08/06 08:35:50;;;;;;;2.10;2.00;;;;;;;19.47;100.00;102799.31;5227679;28;20025;-64
2022/08/06 08:38:20;;;;;;;5.78;2.80;;;;;;;19.62;100.00;102806.00;5246267;28;20016;-65
2022/08/06 08:40:56;;;;;;;2.10;1.90;;;;;;;19.82;100.00;102792.34;5246351;28;20384;-67
2022/08/06 08:43:43;;;;;;;3.10;2.35;;;;;;;19.99;100.00;102794.81;5245378;28;20047;-64
2022/08/06 08:46:14;;;;;;;2.17;2.08;;;;;;;20.19;100.00;102803.91;5246272;28;20119;-67
2022/08/06 08:48:46;;;;;;;2.00;1.98;;;;;;;20.42;100.00;102788.00;5246489;28;20020;-65
2022/08/06 08:51:17;;;;;;;6.18;1.67;;;;;;;20.66;100.00;102796.50;5246683;28;20020;-64
2022/08/06 08:53:55;;;;;;;1.95;1.75;;;;;;;20.88;100.00;102778.59;5245627;28;20025;-66
2022/08/06 08:56:26;;;;;;;3.40;2.38;;;;;;;20.98;99.48;102779.66;5228371;28;20487;-69
2022/08/06 08:58:57;;;;;;;1.65;1.55;;;;;;;20.92;94.28;102778.84;5228728;28;20164;-67
2022/08/06 09:01:27;;;;;;;2.72;1.80;;;;;;;20.79;90.26;102776.72;5246055;28;20035;-65
2022/08/06 09:04:02;;;;;;;2.25;2.03;;;;;;;20.86;90.46;102786.28;5245270;28;20024;-66
2022/08/06 09:06:36;;;;;;;4.47;1.70;;;;;;;21.06;90.01;102785.41;5246012;28;20025;-69
2022/08/06 09:09:07;;;;;;;6.07;2.33;;;;;;;21.36;87.97;102784.50;5245758;28;20206;-67
2022/08/06 09:11:37;;;;;;;2.67;2.42;;;;;;;21.65;87.58;102783.81;5246166;28;20121;-67
2022/08/06 09:14:08;;;;;;;2.35;2.22;;;;;;;21.59;84.34;102788.50;5245132;28;20035;-63
2022/08/06 09:16:39;;;;;;;2.17;1.63;;;;;;;21.28;81.28;102790.59;5245593;28;20021;-65
2022/08/06 09:19:15;;;;;;;1.75;1.65;;;;;;;21.09;82.42;102778.50;5246738;28;20029;-64
2022/08/06 09:21:52;;;;;;;2.00;1.92;;;;;;;21.38;83.33;102782.28;5245839;28;20037;-69
2022/08/06 09:24:23;;;;;;;2.08;1.88;;;;;;;21.71;80.13;102790.88;5244935;28;20025;-65
2022/08/06 09:27:05;;;;;;;1.90;1.83;;;;;;;21.89;81.42;102790.25;5245907;28;20480;-65
2022/08/06 09:29:36;;;;;;;4.38;2.38;;;;;;;21.75;81.90;102787.28;5246060;28;20020;-66
2022/08/06 09:32:09;;;;;;;2.45;1.80;;;;;;;21.61;80.66;102793.72;5245690;28;20441;-65
2022/08/06 09:34:42;;;;;;;3.40;2.13;;;;;;;21.34;79.38;102792.22;5227034;28;20036;-68
2022/08/06 09:37:13;;;;;;;5.70;2.70;;;;;;;21.42;79.90;102788.84;5228132;28;20025;-66
2022/08/06 09:39:45;;;;;;;4.68;2.03;;;;;;;21.56;76.78;102797.31;5227759;28;20450;-64
2022/08/06 09:42:15;;;;;;;2.17;2.08;;;;;;;21.64;77.18;102785.72;5227428;28;20396;-64
2022/08/06 09:45:05;;;;;;;2.13;2.03;;;;;;;21.38;76.26;102790.50;5244867;28;20115;-65
2022/08/06 09:47:37;;;;;;;2.90;2.70;;;;;;;21.23;77.15;102782.34;5245767;28;20020;-67
2022/08/06 09:50:08;;;;;;;1.63;1.52;;;;;;;21.35;78.52;102790.28;5245386;28;20110;-64
2022/08/06 09:52:39;;;;;;;2.22;2.13;;;;;;;21.85;72.71;102790.00;5245208;28;20425;-65
2022/08/06 09:55:28;;;;;;;1.77;1.77;;;;;;;22.11;71.91;102785.16;5244619;28;20031;-66
2022/08/06 09:57:59;;;;;;;4.35;1.75;;;;;;;22.23;69.53;102790.28;5245132;28;20112;-65
2022/08/06 10:00:32;;;;;;;5.15;1.63;;;;;;;22.21;69.05;102790.59;5227630;28;20111;-66
2022/08/06 10:03:05;;;;;;;2.08;1.77;;;;;;;22.29;70.03;102788.31;5245020;28;20054;-65
2022/08/06 10:05:35;;;;;;;1.30;1.30;;;;;;;22.35;72.40;102776.13;5243930;28;20028;-67
2022/08/06 10:08:18;;;;;;;1.50;1.50;;;;;;;22.79;70.49;102785.09;5244903;28;20104;-68
2022/08/06 10:10:51;;;;;;;9.18;1.92;;;;;;;22.68;68.19;102777.19;5244764;28;20027;-68
2022/08/06 10:13:26;;;;;;;2.05;1.30;;;;;;;22.58;68.39;102780.88;5226504;28;20101;-63
2022/08/06 10:15:59;;;;;;;3.85;1.60;;;;;;;22.54;66.69;102766.03;5244305;28;20028;-66
2022/08/06 10:18:41;;;;;;;1.52;1.48;;;;;;;22.48;68.36;102781.81;5244625;28;20074;-63
2022/08/06 10:21:18;;;;;;;1.98;1.85;;;;;;;22.34;67.10;102772.56;5244792;28;20029;-66
2022/08/06 10:23:51;;;;;;;2.17;2.03;;;;;;;22.50;68.28;102773.25;5244042;28;20550;-66
2022/08/06 10:26:27;;;;;;;2.70;1.80;;;;;;;22.92;68.45;102769.78;5244466;28;20392;-65
2022/08/06 10:29:04;;;;;;;5.32;1.30;;;;;;;22.97;64.90;102771.69;5244733;28;20025;-64
2022/08/06 10:31:36;;;;;;;1.75;1.73;;;;;;;22.86;62.93;102774.53;5244702;28;20476;-66
2022/08/06 10:34:10;;;;;;;2.60;1.55;;;;;;;22.62;61.74;102770.91;5243937;28;20493;-66
2022/08/06 10:36:44;;;;;;;3.38;1.70;;;;;;;22.35;60.68;102768.69;5244033;28;20492;-64
2022/08/06 10:39:16;;;;;;;2.67;1.52;;;;;;;22.33;62.14;102767.34;5244602;28;20032;-64
2022/08/06 10:41:46;;;;;;;2.78;1.70;;;;;;;22.63;62.78;102764.28;5242712;28;20035;-65
2022/08/06 10:44:17;;;;;;;2.25;1.13;;;;;;;22.76;62.33;102758.13;5242701;28;20029;-63
2022/08/06 10:46:51;;;;;;;2.35;2.15;;;;;;;22.59;62.54;102743.97;5241823;28;20032;-66
2022/08/06 10:49:22;;;;;;;1.92;1.60;;;;;;;22.52;62.16;102754.53;5240038;28;20032;-66
2022/08/06 10:51:53;;;;;;;1.20;1.20;;;;;;;22.58;62.08;102739.56;5244939;28;20028;-66
2022/08/06 10:54:25;;;;;;;1.15;1.10;;;;;;;22.97;64.25;102753.22;5244611;28;20037;-66
2022/08/06 10:56:56;;;;;;;7.00;2.30;;;;;;;23.06;60.35;102753.38;5244850;28;20103;-64
2022/08/06 10:59:26;;;;;;;1.88;1.58;;;;;;;22.98;61.55;102749.34;5244690;28;20025;-66
2022/08/06 11:02:18;;;;;;;1.77;1.30;;;;;;;23.04;61.21;102755.63;5244872;28;20055;-66
2022/08/06 11:04:56;;;;;;;1.20;1.20;;;;;;;22.84;58.61;102759.41;5244445;28;20028;-66
2022/08/06 11:07:45;;;;;;;1.33;1.20;;;;;;;22.44;59.40;102760.66;5244773;28;20103;-66
2022/08/06 11:10:39;;;;;;;2.92;2.08;;;;;;;22.53;61.05;102756.13;5244781;28;20451;-66
2022/08/06 11:13:15;;;;;;;1.40;1.30;;;;;;;22.94;60.17;102745.53;5245210;28;20404;-66
2022/08/06 11:15:45;;;;;;;0.77;0.77;;;;;;;23.33;60.05;102741.72;5244380;28;20025;-66
2022/08/06 11:18:17;;;;;;;1.17;1.17;;;;;;;23.60;58.78;102746.63;5246818;28;20051;-66
2022/08/06 11:20:49;;;;;;;1.00;1.00;;;;;;;23.59;58.32;102739.47;5230636;28;20024;-66
2022/08/06 11:23:24;;;;;;;2.38;1.65;;;;;;;23.69;58.01;102739.28;5248207;28;20047;-66
2022/08/06 11:26:00;;;;;;;1.83;1.70;;;;;;;23.79;58.72;102739.13;5248420;28;20021;-66
2022/08/06 11:28:30;;;;;;;4.78;1.55;;;;;;;23.32;57.49;102740.91;5248227;28;20025;-66
2022/08/06 11:31:03;;;;;;;1.10;1.10;;;;;;;23.30;58.69;102743.16;5248581;28;20025;-66
2022/08/06 11:33:33;;;;;;;2.05;1.42;;;;;;;23.58;58.15;102732.31;5248008;28;20036;-65
2022/08/06 11:36:05;;;;;;;1.13;1.13;;;;;;;23.84;56.96;102736.31;5230257;28;20025;-66
2022/08/06 11:38:51;;;;;;;1.13;1.13;;;;;;;23.87;57.15;102732.94;5248280;28;20422;-65
2022/08/06 11:41:21;;;;;;;1.10;1.10;;;;;;;23.56;57.83;102730.66;5248045;28;20388;-66
2022/08/06 11:43:51;;;;;;;1.20;1.15;;;;;;;23.66;57.00;102732.47;5247446;28;20035;-65
2022/08/06 11:46:39;;;;;;;1.45;1.35;;;;;;;23.75;56.06;102725.13;5248006;28;20017;-63
2022/08/06 11:49:18;;;;;;;0.80;0.80;;;;;;;23.59;58.28;102729.25;5247981;28;20024;-66
2022/08/06 11:51:53;;;;;;;1.47;1.37;;;;;;;23.48;56.96;102727.72;5248345;28;20481;-65
2022/08/06 11:54:56;;;;;;;2.33;2.00;;;;;;;23.19;56.75;102725.91;5247634;28;20484;-66
2022/08/06 11:57:26;;;;;;;0.77;0.77;;;;;;;22.69;57.95;102729.25;5248033;28;20674;-66
2022/08/06 12:00:01;;;;;;;1.23;1.15;;;;;;;22.54;58.05;102728.31;5247466;28;20024;-64